Rio Rico, AZ

10:56 AM MST on September 30, 2014 (GMT -0700)
Cerro Pelon | Change Station
CLOSE
Current Station
Personal Weather Station
Location: Tubac, AZ
Elevation: 3488 ft
Nearby Weather Stations

Elev 3488 ft 31.60 °N, 111.07 °W | Updated 5 seconds ago

Clear
Clear
79.8 °F
Feels Like 80 °F
N
1.0
Wind Variable Wind from North
Gusts 3.0 mph

Today
High -- | Low -- °F
--% Chance of Precip.
Yesterday
High -- | Low -- °F
Precip. -- in
6:17 AM 6:10 PM
Waxing Crescent, 38% visible
Pressure 29.84 in
Visibility 10.0 miles
Clouds Clear
Heat Index 80 °F
Dew Point 54 °F
Humidity 41%
Rainfall 0.00 in
Snow Depth 1 in , 0 in , 1 in
UV 6 out of 12
Pollen 6.00 out of 12
Air Quality Not available.
Flu Activity Not available.
METAR KOLS 301654Z AUTO 00000KT 10SM CLR 23/11 A3000 RMK AO2 SLP103 T02280111

More Conditions Fewer Conditions

Pressure 29.84 in
Visibility 10.0 miles
Clouds Clear
Heat Index 80 °F
Dew Point 54 °F
Humidity 41%
Rainfall 0.00 in
Snow Depth 1 in , 0 in , 1 in
UV 6 out of 12
Pollen 6.00 out of 12
Air Quality Not available.
Flu Activity Not available.
METAR KOLS 301654Z AUTO 00000KT 10SM CLR 23/11 A3000 RMK AO2 SLP103 T02280111

More Conditions Fewer Conditions

10-Day Weather Forecast

Almanac

Astronomy

Sep. 30, 2014 Rise Set
Actual Time 6:17 AM MST 6:10 PM MST
Civil Twilight 5:53 AM MST 6:34 PM MST
Nautical Twilight 5:25 AM MST 7:02 PM MST
Astronomical Twilight 4:56 AM MST 7:31 PM MST
Moon 12:12 PM MST 11:00 PM MST
Length of Visible Light 12h 41m
Length of Day
11h 52m
Tomorrow will be 1m 54s shorter.
Waxing Crescent, 38% of the Moon is Illuminated
Today
Waxing Crescent
Oct 1
First Quarter
Oct 8
Full
Oct 15
Last Quarter
Oct 23
New

Today's Extremes

State Highs State Lows

Community

WunderPhotos

Upload Photos

1,757,693 photos uploaded!

Nearby

Snow Depth

Station Depth Elevation
Promontory 1 in 7930 ft
Maverick Fork 0 in 9200 ft
Workman Creek 1 in 6900 ft
Wildcat 1 in 7850 ft
Snowslide Canyon 0 in 9730 ft

Earthquake Activity

City Distance Mag. Time & Date
No recent earthquake activity has been reported nearby.
Minimum magnitude displayed is 2.5.

Coastal Water Temperatures

Place Temperature
No Stations Reporting

Nearby Weather Stations